sensor_id;sensor_type;location;lat;lon;timestamp;P1;durP1;ratioP1;P2;durP2;ratioP2
26512;SDS011;14186;53.822;10.152;2022-09-09T00:01:43;61.45;;;30.33;;
26512;SDS011;14186;53.822;10.152;2022-09-09T00:06:50;58.45;;;27.50;;
26512;SDS011;14186;53.822;10.152;2022-09-09T00:11:54;55.03;;;28.15;;
26512;SDS011;14186;53.822;10.152;2022-09-09T00:16:57;50.63;;;26.55;;
26512;SDS011;14186;53.822;10.152;2022-09-09T00:22:05;53.97;;;27.07;;
26512;SDS011;14186;53.822;10.152;2022-09-09T00:27:08;53.05;;;27.60;;
26512;SDS011;14186;53.822;10.152;2022-09-09T00:32:12;56.13;;;27.85;;
26512;SDS011;14186;53.822;10.152;2022-09-09T00:37:20;61.55;;;28.08;;
26512;SDS011;14186;53.822;10.152;2022-09-09T00:42:23;61.20;;;29.67;;
26512;SDS011;14186;53.822;10.152;2022-09-09T00:47:29;60.47;;;29.75;;
26512;SDS011;14186;53.822;10.152;2022-09-09T00:52:36;56.55;;;29.17;;
26512;SDS011;14186;53.822;10.152;2022-09-09T00:57:39;60.38;;;27.13;;
26512;SDS011;14186;53.822;10.152;2022-09-09T01:02:42;55.35;;;27.65;;
26512;SDS011;14186;53.822;10.152;2022-09-09T01:07:47;73.13;;;28.17;;
26512;SDS011;14186;53.822;10.152;2022-09-09T01:12:48;69.03;;;27.00;;
26512;SDS011;14186;53.822;10.152;2022-09-09T01:17:53;81.63;;;28.25;;
26512;SDS011;14186;53.822;10.152;2022-09-09T01:23:07;82.55;;;28.02;;
26512;SDS011;14186;53.822;10.152;2022-09-09T01:28:12;107.35;;;27.67;;
26512;SDS011;14186;53.822;10.152;2022-09-09T01:33:15;79.90;;;28.98;;
26512;SDS011;14186;53.822;10.152;2022-09-09T01:38:16;84.45;;;28.15;;
26512;SDS011;14186;53.822;10.152;2022-09-09T01:43:19;71.82;;;25.20;;
26512;SDS011;14186;53.822;10.152;2022-09-09T01:48:19;110.50;;;27.02;;
26512;SDS011;14186;53.822;10.152;2022-09-09T01:53:21;126.70;;;28.17;;
26512;SDS011;14186;53.822;10.152;2022-09-09T01:58:25;85.53;;;26.42;;
26512;SDS011;14186;53.822;10.152;2022-09-09T02:03:28;105.32;;;29.55;;
26512;SDS011;14186;53.822;10.152;2022-09-09T02:08:33;111.68;;;29.35;;
26512;SDS011;14186;53.822;10.152;2022-09-09T02:13:38;83.07;;;26.77;;
26512;SDS011;14186;53.822;10.152;2022-09-09T02:18:40;98.53;;;28.83;;
26512;SDS011;14186;53.822;10.152;2022-09-09T02:23:44;96.43;;;28.23;;
26512;SDS011;14186;53.822;10.152;2022-09-09T02:28:47;75.88;;;28.05;;
26512;SDS011;14186;53.822;10.152;2022-09-09T02:33:50;70.07;;;27.13;;
26512;SDS011;14186;53.822;10.152;2022-09-09T02:38:52;79.40;;;28.13;;
26512;SDS011;14186;53.822;10.152;2022-09-09T02:43:53;100.68;;;31.08;;
26512;SDS011;14186;53.822;10.152;2022-09-09T02:48:55;86.38;;;27.98;;
26512;SDS011;14186;53.822;10.152;2022-09-09T02:54:02;76.15;;;27.95;;
26512;SDS011;14186;53.822;10.152;2022-09-09T02:59:08;75.18;;;28.35;;
26512;SDS011;14186;53.822;10.152;2022-09-09T03:04:08;74.60;;;29.10;;
26512;SDS011;14186;53.822;10.152;2022-09-09T03:09:08;64.35;;;27.85;;
26512;SDS011;14186;53.822;10.152;2022-09-09T03:14:10;75.72;;;27.85;;
26512;SDS011;14186;53.822;10.152;2022-09-09T03:19:10;66.35;;;26.85;;
26512;SDS011;14186;53.822;10.152;2022-09-09T03:24:10;80.07;;;28.15;;
26512;SDS011;14186;53.822;10.152;2022-09-09T03:29:12;66.68;;;26.25;;
26512;SDS011;14186;53.822;10.152;2022-09-09T03:34:12;62.88;;;26.95;;
26512;SDS011;14186;53.822;10.152;2022-09-09T03:39:12;60.78;;;25.92;;
26512;SDS011;14186;53.822;10.152;2022-09-09T03:44:14;61.95;;;26.33;;
26512;SDS011;14186;53.822;10.152;2022-09-09T03:49:14;55.28;;;25.88;;
26512;SDS011;14186;53.822;10.152;2022-09-09T03:54:14;59.00;;;24.98;;
26512;SDS011;14186;53.822;10.152;2022-09-09T03:59:17;60.70;;;24.30;;
26512;SDS011;14186;53.822;10.152;2022-09-09T04:04:17;63.50;;;26.58;;
26512;SDS011;14186;53.822;10.152;2022-09-09T04:09:17;54.72;;;24.60;;
26512;SDS011;14186;53.822;10.152;2022-09-09T04:14:20;55.92;;;24.40;;
26512;SDS011;14186;53.822;10.152;2022-09-09T04:19:20;56.78;;;26.05;;
26512;SDS011;14186;53.822;10.152;2022-09-09T04:24:20;55.83;;;26.45;;
26512;SDS011;14186;53.822;10.152;2022-09-09T04:29:22;62.85;;;28.45;;
26512;SDS011;14186;53.822;10.152;2022-09-09T04:34:22;55.22;;;26.77;;
26512;SDS011;14186;53.822;10.152;2022-09-09T04:39:22;54.95;;;24.67;;
26512;SDS011;14186;53.822;10.152;2022-09-09T04:44:24;51.50;;;24.87;;
26512;SDS011;14186;53.822;10.152;2022-09-09T04:49:24;68.70;;;29.13;;
26512;SDS011;14186;53.822;10.152;2022-09-09T04:54:24;59.58;;;27.40;;
26512;SDS011;14186;53.822;10.152;2022-09-09T04:59:26;51.38;;;26.65;;
26512;SDS011;14186;53.822;10.152;2022-09-09T05:04:26;57.05;;;28.33;;
26512;SDS011;14186;53.822;10.152;2022-09-09T05:09:26;50.38;;;25.58;;
26512;SDS011;14186;53.822;10.152;2022-09-09T05:14:34;48.38;;;23.65;;
26512;SDS011;14186;53.822;10.152;2022-09-09T05:19:34;48.40;;;24.45;;
26512;SDS011;14186;53.822;10.152;2022-09-09T05:24:34;42.72;;;22.67;;
26512;SDS011;14186;53.822;10.152;2022-09-09T05:29:36;38.38;;;22.80;;
26512;SDS011;14186;53.822;10.152;2022-09-09T05:34:36;37.28;;;21.73;;
26512;SDS011;14186;53.822;10.152;2022-09-09T05:39:36;32.42;;;21.00;;
26512;SDS011;14186;53.822;10.152;2022-09-09T05:44:38;30.48;;;19.60;;
26512;SDS011;14186;53.822;10.152;2022-09-09T05:49:38;31.85;;;21.27;;
26512;SDS011;14186;53.822;10.152;2022-09-09T05:54:38;27.85;;;18.80;;
26512;SDS011;14186;53.822;10.152;2022-09-09T05:59:40;29.88;;;18.88;;
26512;SDS011;14186;53.822;10.152;2022-09-09T06:04:40;27.35;;;16.60;;
26512;SDS011;14186;53.822;10.152;2022-09-09T06:09:40;26.23;;;16.50;;
26512;SDS011;14186;53.822;10.152;2022-09-09T06:14:42;24.50;;;16.17;;
26512;SDS011;14186;53.822;10.152;2022-09-09T06:19:42;22.35;;;15.85;;
26512;SDS011;14186;53.822;10.152;2022-09-09T06:24:42;22.63;;;15.52;;
26512;SDS011;14186;53.822;10.152;2022-09-09T06:29:44;21.95;;;14.82;;
26512;SDS011;14186;53.822;10.152;2022-09-09T06:34:44;20.67;;;14.40;;
26512;SDS011;14186;53.822;10.152;2022-09-09T06:39:44;19.83;;;12.77;;
26512;SDS011;14186;53.822;10.152;2022-09-09T06:44:46;20.30;;;12.00;;
26512;SDS011;14186;53.822;10.152;2022-09-09T06:49:46;17.25;;;11.27;;
26512;SDS011;14186;53.822;10.152;2022-09-09T06:54:46;17.65;;;11.70;;
26512;SDS011;14186;53.822;10.152;2022-09-09T06:59:48;16.65;;;10.88;;
26512;SDS011;14186;53.822;10.152;2022-09-09T07:04:48;15.07;;;9.70;;
26512;SDS011;14186;53.822;10.152;2022-09-09T07:09:48;14.23;;;9.43;;
26512;SDS011;14186;53.822;10.152;2022-09-09T07:14:49;15.93;;;9.98;;
26512;SDS011;14186;53.822;10.152;2022-09-09T07:19:50;20.45;;;8.52;;
26512;SDS011;14186;53.822;10.152;2022-09-09T07:24:50;11.35;;;8.18;;
26512;SDS011;14186;53.822;10.152;2022-09-09T07:29:52;13.60;;;7.68;;
26512;SDS011;14186;53.822;10.152;2022-09-09T07:34:53;8.45;;;6.30;;
26512;SDS011;14186;53.822;10.152;2022-09-09T07:39:53;8.35;;;5.63;;
26512;SDS011;14186;53.822;10.152;2022-09-09T07:44:56;7.78;;;5.60;;
26512;SDS011;14186;53.822;10.152;2022-09-09T07:49:58;9.63;;;5.47;;
26512;SDS011;14186;53.822;10.152;2022-09-09T07:54:58;6.43;;;4.97;;
26512;SDS011;14186;53.822;10.152;2022-09-09T08:00:00;7.82;;;4.97;;
26512;SDS011;14186;53.822;10.152;2022-09-09T08:05:00;11.25;;;5.00;;
26512;SDS011;14186;53.822;10.152;2022-09-09T08:10:00;9.07;;;4.75;;
26512;SDS011;14186;53.822;10.152;2022-09-09T08:15:02;6.28;;;4.35;;
26512;SDS011;14186;53.822;10.152;2022-09-09T08:20:02;7.22;;;4.28;;
26512;SDS011;14186;53.822;10.152;2022-09-09T08:25:03;9.52;;;4.25;;
26512;SDS011;14186;53.822;10.152;2022-09-09T08:30:05;8.52;;;4.88;;
26512;SDS011;14186;53.822;10.152;2022-09-09T08:35:06;7.65;;;4.75;;
26512;SDS011;14186;53.822;10.152;2022-09-09T08:40:07;7.50;;;5.00;;
26512;SDS011;14186;53.822;10.152;2022-09-09T08:45:14;9.15;;;5.60;;
26512;SDS011;14186;53.822;10.152;2022-09-09T08:50:20;8.35;;;5.40;;
26512;SDS011;14186;53.822;10.152;2022-09-09T08:55:23;10.43;;;5.00;;
26512;SDS011;14186;53.822;10.152;2022-09-09T09:00:27;6.97;;;4.53;;
26512;SDS011;14186;53.822;10.152;2022-09-09T09:05:31;8.70;;;4.43;;
26512;SDS011;14186;53.822;10.152;2022-09-09T09:10:37;5.95;;;3.75;;
26512;SDS011;14186;53.822;10.152;2022-09-09T09:15:40;5.95;;;3.70;;
26512;SDS011;14186;53.822;10.152;2022-09-09T09:20:44;6.72;;;3.80;;
26512;SDS011;14186;53.822;10.152;2022-09-09T09:25:48;5.15;;;3.20;;
26512;SDS011;14186;53.822;10.152;2022-09-09T09:30:52;6.80;;;3.72;;
26512;SDS011;14186;53.822;10.152;2022-09-09T09:35:53;5.88;;;3.03;;
26512;SDS011;14186;53.822;10.152;2022-09-09T09:40:54;5.28;;;3.28;;
26512;SDS011;14186;53.822;10.152;2022-09-09T09:45:56;6.10;;;3.72;;
26512;SDS011;14186;53.822;10.152;2022-09-09T09:50:58;10.35;;;3.08;;
26512;SDS011;14186;53.822;10.152;2022-09-09T09:55:59;5.05;;;3.33;;
26512;SDS011;14186;53.822;10.152;2022-09-09T10:01:01;5.68;;;3.00;;
26512;SDS011;14186;53.822;10.152;2022-09-09T10:06:01;7.50;;;3.17;;
26512;SDS011;14186;53.822;10.152;2022-09-09T10:11:04;6.72;;;2.83;;
26512;SDS011;14186;53.822;10.152;2022-09-09T10:16:17;6.13;;;2.28;;
26512;SDS011;14186;53.822;10.152;2022-09-09T10:21:21;6.25;;;2.00;;
26512;SDS011;14186;53.822;10.152;2022-09-09T10:26:31;4.18;;;1.95;;
26512;SDS011;14186;53.822;10.152;2022-09-09T10:31:37;3.40;;;2.30;;
26512;SDS011;14186;53.822;10.152;2022-09-09T10:36:41;4.60;;;2.00;;
26512;SDS011;14186;53.822;10.152;2022-09-09T10:41:44;5.20;;;2.22;;
26512;SDS011;14186;53.822;10.152;2022-09-09T10:46:55;6.80;;;2.00;;
26512;SDS011;14186;53.822;10.152;2022-09-09T10:52:00;3.03;;;1.50;;
26512;SDS011;14186;53.822;10.152;2022-09-09T10:57:08;4.35;;;1.90;;
26512;SDS011;14186;53.822;10.152;2022-09-09T11:02:21;4.53;;;1.35;;
26512;SDS011;14186;53.822;10.152;2022-09-09T11:07:26;4.72;;;1.73;;
26512;SDS011;14186;53.822;10.152;2022-09-09T11:12:29;3.25;;;1.13;;
26512;SDS011;14186;53.822;10.152;2022-09-09T11:17:33;3.47;;;0.95;;
26512;SDS011;14186;53.822;10.152;2022-09-09T11:22:35;4.53;;;1.40;;
26512;SDS011;14186;53.822;10.152;2022-09-09T11:27:41;3.95;;;1.10;;
26512;SDS011;14186;53.822;10.152;2022-09-09T11:32:51;4.50;;;0.90;;
26512;SDS011;14186;53.822;10.152;2022-09-09T11:37:59;3.83;;;0.77;;
26512;SDS011;14186;53.822;10.152;2022-09-09T11:43:04;2.13;;;0.90;;
26512;SDS011;14186;53.822;10.152;2022-09-09T11:48:22;2.25;;;0.60;;
26512;SDS011;14186;53.822;10.152;2022-09-09T11:53:22;3.58;;;0.88;;
26512;SDS011;14186;53.822;10.152;2022-09-09T11:58:22;2.40;;;0.70;;
26512;SDS011;14186;53.822;10.152;2022-09-09T12:03:35;4.20;;;0.73;;
26512;SDS011;14186;53.822;10.152;2022-09-09T12:08:37;4.13;;;0.80;;
26512;SDS011;14186;53.822;10.152;2022-09-09T12:13:40;2.70;;;0.90;;
26512;SDS011;14186;53.822;10.152;2022-09-09T12:19:02;2.17;;;0.70;;
26512;SDS011;14186;53.822;10.152;2022-09-09T12:24:03;4.03;;;0.77;;
26512;SDS011;14186;53.822;10.152;2022-09-09T12:29:09;3.88;;;0.80;;
26512;SDS011;14186;53.822;10.152;2022-09-09T12:34:16;3.40;;;0.73;;
26512;SDS011;14186;53.822;10.152;2022-09-09T12:39:18;2.15;;;0.65;;
26512;SDS011;14186;53.822;10.152;2022-09-09T12:44:19;2.53;;;0.77;;
26512;SDS011;14186;53.822;10.152;2022-09-09T12:49:26;3.35;;;0.90;;
26512;SDS011;14186;53.822;10.152;2022-09-09T12:54:27;2.67;;;1.15;;
26512;SDS011;14186;53.822;10.152;2022-09-09T12:59:34;3.47;;;0.80;;
26512;SDS011;14186;53.822;10.152;2022-09-09T13:04:38;3.97;;;1.30;;
26512;SDS011;14186;53.822;10.152;2022-09-09T13:09:38;3.40;;;1.00;;
26512;SDS011;14186;53.822;10.152;2022-09-09T13:14:39;2.75;;;0.68;;
26512;SDS011;14186;53.822;10.152;2022-09-09T13:19:44;1.40;;;0.60;;
26512;SDS011;14186;53.822;10.152;2022-09-09T13:24:45;3.88;;;0.98;;
26512;SDS011;14186;53.822;10.152;2022-09-09T13:29:50;2.55;;;0.70;;
26512;SDS011;14186;53.822;10.152;2022-09-09T13:34:52;4.32;;;0.93;;
26512;SDS011;14186;53.822;10.152;2022-09-09T13:39:53;3.22;;;1.05;;
26512;SDS011;14186;53.822;10.152;2022-09-09T13:44:54;4.55;;;1.10;;
26512;SDS011;14186;53.822;10.152;2022-09-09T13:49:56;2.78;;;1.10;;
26512;SDS011;14186;53.822;10.152;2022-09-09T13:54:57;4.10;;;1.42;;
26512;SDS011;14186;53.822;10.152;2022-09-09T13:59:58;3.78;;;1.27;;
26512;SDS011;14186;53.822;10.152;2022-09-09T14:04:59;5.60;;;1.42;;
26512;SDS011;14186;53.822;10.152;2022-09-09T14:09:59;3.17;;;1.02;;
26512;SDS011;14186;53.822;10.152;2022-09-09T14:15:00;3.08;;;1.55;;
26512;SDS011;14186;53.822;10.152;2022-09-09T14:20:01;3.38;;;1.45;;
26512;SDS011;14186;53.822;10.152;2022-09-09T14:25:02;2.95;;;1.40;;
26512;SDS011;14186;53.822;10.152;2022-09-09T14:30:03;4.65;;;1.98;;
26512;SDS011;14186;53.822;10.152;2022-09-09T14:35:05;3.55;;;1.42;;
26512;SDS011;14186;53.822;10.152;2022-09-09T14:40:06;4.22;;;1.67;;
26512;SDS011;14186;53.822;10.152;2022-09-09T14:45:07;4.13;;;1.63;;
26512;SDS011;14186;53.822;10.152;2022-09-09T14:50:10;4.25;;;1.40;;
26512;SDS011;14186;53.822;10.152;2022-09-09T14:55:10;3.05;;;1.23;;
26512;SDS011;14186;53.822;10.152;2022-09-09T15:00:10;2.38;;;1.00;;
26512;SDS011;14186;53.822;10.152;2022-09-09T15:05:12;5.72;;;1.77;;
26512;SDS011;14186;53.822;10.152;2022-09-09T15:10:12;4.28;;;1.35;;
26512;SDS011;14186;53.822;10.152;2022-09-09T15:15:14;3.55;;;1.15;;
26512;SDS011;14186;53.822;10.152;2022-09-09T15:20:15;3.28;;;1.48;;
26512;SDS011;14186;53.822;10.152;2022-09-09T15:25:17;4.35;;;1.80;;
26512;SDS011;14186;53.822;10.152;2022-09-09T15:30:17;2.15;;;0.95;;
26512;SDS011;14186;53.822;10.152;2022-09-09T15:35:18;2.45;;;1.00;;
26512;SDS011;14186;53.822;10.152;2022-09-09T15:40:19;4.22;;;1.27;;
26512;SDS011;14186;53.822;10.152;2022-09-09T15:45:19;4.60;;;1.45;;
26512;SDS011;14186;53.822;10.152;2022-09-09T15:50:20;6.05;;;1.88;;
26512;SDS011;14186;53.822;10.152;2022-09-09T15:55:21;4.10;;;2.28;;
26512;SDS011;14186;53.822;10.152;2022-09-09T16:00:21;4.68;;;1.35;;
26512;SDS011;14186;53.822;10.152;2022-09-09T16:05:22;4.63;;;1.30;;
26512;SDS011;14186;53.822;10.152;2022-09-09T16:10:23;4.13;;;1.60;;
26512;SDS011;14186;53.822;10.152;2022-09-09T16:15:23;2.72;;;1.30;;
26512;SDS011;14186;53.822;10.152;2022-09-09T16:20:24;3.85;;;1.40;;
26512;SDS011;14186;53.822;10.152;2022-09-09T16:25:25;4.18;;;1.67;;
26512;SDS011;14186;53.822;10.152;2022-09-09T16:30:25;2.72;;;1.83;;
26512;SDS011;14186;53.822;10.152;2022-09-09T16:35:26;4.45;;;1.50;;
26512;SDS011;14186;53.822;10.152;2022-09-09T16:40:27;3.17;;;1.60;;
26512;SDS011;14186;53.822;10.152;2022-09-09T16:45:27;6.05;;;1.83;;
26512;SDS011;14186;53.822;10.152;2022-09-09T16:50:30;4.38;;;1.50;;
26512;SDS011;14186;53.822;10.152;2022-09-09T16:55:30;3.08;;;1.20;;
26512;SDS011;14186;53.822;10.152;2022-09-09T17:00:31;7.03;;;1.75;;
26512;SDS011;14186;53.822;10.152;2022-09-09T17:05:33;3.42;;;1.20;;
26512;SDS011;14186;53.822;10.152;2022-09-09T17:10:40;4.30;;;1.88;;
26512;SDS011;14186;53.822;10.152;2022-09-09T17:15:40;4.88;;;2.10;;
26512;SDS011;14186;53.822;10.152;2022-09-09T17:20:42;3.95;;;2.00;;
26512;SDS011;14186;53.822;10.152;2022-09-09T17:25:42;4.10;;;1.55;;
26512;SDS011;14186;53.822;10.152;2022-09-09T17:30:42;3.13;;;1.48;;
26512;SDS011;14186;53.822;10.152;2022-09-09T17:35:44;5.97;;;1.52;;
26512;SDS011;14186;53.822;10.152;2022-09-09T17:40:44;2.80;;;1.60;;
26512;SDS011;14186;53.822;10.152;2022-09-09T17:45:45;3.95;;;1.75;;
26512;SDS011;14186;53.822;10.152;2022-09-09T17:50:46;7.45;;;2.53;;
26512;SDS011;14186;53.822;10.152;2022-09-09T17:55:48;4.50;;;1.48;;
26512;SDS011;14186;53.822;10.152;2022-09-09T18:00:48;3.55;;;1.83;;
26512;SDS011;14186;53.822;10.152;2022-09-09T18:05:49;3.95;;;2.42;;
26512;SDS011;14186;53.822;10.152;2022-09-09T18:10:51;3.00;;;1.60;;
26512;SDS011;14186;53.822;10.152;2022-09-09T18:15:51;8.13;;;1.85;;
26512;SDS011;14186;53.822;10.152;2022-09-09T18:21:02;3.65;;;1.60;;
26512;SDS011;14186;53.822;10.152;2022-09-09T18:26:06;5.55;;;2.15;;
26512;SDS011;14186;53.822;10.152;2022-09-09T18:31:07;3.47;;;1.90;;
26512;SDS011;14186;53.822;10.152;2022-09-09T18:36:09;4.45;;;2.22;;
26512;SDS011;14186;53.822;10.152;2022-09-09T18:41:13;3.38;;;1.83;;
26512;SDS011;14186;53.822;10.152;2022-09-09T18:46:14;4.47;;;2.08;;
26512;SDS011;14186;53.822;10.152;2022-09-09T18:51:16;5.68;;;2.08;;
26512;SDS011;14186;53.822;10.152;2022-09-09T18:56:17;4.22;;;1.95;;
26512;SDS011;14186;53.822;10.152;2022-09-09T19:01:18;8.23;;;4.28;;
26512;SDS011;14186;53.822;10.152;2022-09-09T19:06:21;9.93;;;4.10;;
26512;SDS011;14186;53.822;10.152;2022-09-09T19:11:22;9.60;;;3.25;;
26512;SDS011;14186;53.822;10.152;2022-09-09T19:16:23;5.22;;;2.83;;
26512;SDS011;14186;53.822;10.152;2022-09-09T19:21:26;6.35;;;3.03;;
26512;SDS011;14186;53.822;10.152;2022-09-09T19:26:27;5.38;;;3.08;;
26512;SDS011;14186;53.822;10.152;2022-09-09T19:31:27;4.95;;;3.28;;
26512;SDS011;14186;53.822;10.152;2022-09-09T19:36:29;5.63;;;2.90;;
26512;SDS011;14186;53.822;10.152;2022-09-09T19:41:29;4.68;;;2.80;;
26512;SDS011;14186;53.822;10.152;2022-09-09T19:46:30;6.77;;;3.30;;
26512;SDS011;14186;53.822;10.152;2022-09-09T19:51:33;6.70;;;3.40;;
26512;SDS011;14186;53.822;10.152;2022-09-09T19:56:34;8.43;;;4.30;;
26512;SDS011;14186;53.822;10.152;2022-09-09T20:01:35;9.60;;;4.38;;
26512;SDS011;14186;53.822;10.152;2022-09-09T20:06:37;6.25;;;3.58;;
26512;SDS011;14186;53.822;10.152;2022-09-09T20:11:38;7.28;;;4.18;;
26512;SDS011;14186;53.822;10.152;2022-09-09T20:16:38;7.95;;;4.07;;
26512;SDS011;14186;53.822;10.152;2022-09-09T20:21:40;6.95;;;4.10;;
26512;SDS011;14186;53.822;10.152;2022-09-09T20:26:41;7.03;;;4.80;;
26512;SDS011;14186;53.822;10.152;2022-09-09T20:31:42;8.80;;;4.47;;
26512;SDS011;14186;53.822;10.152;2022-09-09T20:36:44;8.70;;;5.05;;
26512;SDS011;14186;53.822;10.152;2022-09-09T20:41:44;9.43;;;5.53;;
26512;SDS011;14186;53.822;10.152;2022-09-09T20:46:45;10.00;;;6.03;;
26512;SDS011;14186;53.822;10.152;2022-09-09T20:51:47;10.95;;;6.30;;
26512;SDS011;14186;53.822;10.152;2022-09-09T20:56:49;9.55;;;5.97;;
26512;SDS011;14186;53.822;10.152;2022-09-09T21:01:50;9.57;;;5.95;;
26512;SDS011;14186;53.822;10.152;2022-09-09T21:06:52;8.77;;;5.80;;
26512;SDS011;14186;53.822;10.152;2022-09-09T21:11:52;6.90;;;5.28;;
26512;SDS011;14186;53.822;10.152;2022-09-09T21:16:53;8.80;;;5.55;;
26512;SDS011;14186;53.822;10.152;2022-09-09T21:21:55;12.77;;;5.72;;
26512;SDS011;14186;53.822;10.152;2022-09-09T21:26:55;10.18;;;5.10;;
26512;SDS011;14186;53.822;10.152;2022-09-09T21:31:55;10.32;;;5.85;;
26512;SDS011;14186;53.822;10.152;2022-09-09T21:36:57;9.40;;;5.65;;
26512;SDS011;14186;53.822;10.152;2022-09-09T21:41:57;8.07;;;6.00;;
26512;SDS011;14186;53.822;10.152;2022-09-09T21:46:57;9.48;;;5.70;;
26512;SDS011;14186;53.822;10.152;2022-09-09T21:52:00;8.90;;;4.90;;
26512;SDS011;14186;53.822;10.152;2022-09-09T21:57:01;7.07;;;4.75;;
26512;SDS011;14186;53.822;10.152;2022-09-09T22:02:02;8.30;;;4.88;;
26512;SDS011;14186;53.822;10.152;2022-09-09T22:07:03;7.07;;;4.72;;
26512;SDS011;14186;53.822;10.152;2022-09-09T22:12:04;9.07;;;4.75;;
26512;SDS011;14186;53.822;10.152;2022-09-09T22:17:04;9.80;;;6.13;;
26512;SDS011;14186;53.822;10.152;2022-09-09T22:22:06;10.60;;;4.90;;
26512;SDS011;14186;53.822;10.152;2022-09-09T22:27:09;7.47;;;4.70;;
26512;SDS011;14186;53.822;10.152;2022-09-09T22:32:09;10.98;;;5.78;;
26512;SDS011;14186;53.822;10.152;2022-09-09T22:37:11;7.75;;;5.20;;
26512;SDS011;14186;53.822;10.152;2022-09-09T22:42:11;8.48;;;5.43;;
26512;SDS011;14186;53.822;10.152;2022-09-09T22:47:12;8.25;;;5.40;;
26512;SDS011;14186;53.822;10.152;2022-09-09T22:52:14;7.90;;;5.30;;
26512;SDS011;14186;53.822;10.152;2022-09-09T22:57:14;8.68;;;5.38;;
26512;SDS011;14186;53.822;10.152;2022-09-09T23:02:14;10.27;;;5.15;;
26512;SDS011;14186;53.822;10.152;2022-09-09T23:07:16;8.10;;;4.47;;
26512;SDS011;14186;53.822;10.152;2022-09-09T23:12:16;7.18;;;4.72;;
26512;SDS011;14186;53.822;10.152;2022-09-09T23:17:16;8.90;;;5.03;;
26512;SDS011;14186;53.822;10.152;2022-09-09T23:22:18;9.70;;;5.10;;
26512;SDS011;14186;53.822;10.152;2022-09-09T23:27:19;6.47;;;4.30;;
26512;SDS011;14186;53.822;10.152;2022-09-09T23:32:20;8.23;;;4.90;;
26512;SDS011;14186;53.822;10.152;2022-09-09T23:37:21;7.17;;;5.10;;
26512;SDS011;14186;53.822;10.152;2022-09-09T23:42:23;6.47;;;4.47;;
26512;SDS011;14186;53.822;10.152;2022-09-09T23:47:24;7.57;;;4.97;;
26512;SDS011;14186;53.822;10.152;2022-09-09T23:52:25;8.30;;;5.63;;
26512;SDS011;14186;53.822;10.152;2022-09-09T23:57:25;7.07;;;4.90;;
